createdAt,value
2023-01-13T00:00:27.318Z,956.59
2023-01-13T00:01:27.311Z,956.55
2023-01-13T00:02:27.381Z,956.56
2023-01-13T00:03:27.353Z,956.60
2023-01-13T00:04:27.462Z,956.64
2023-01-13T00:05:27.241Z,956.58
2023-01-13T00:06:27.262Z,956.53
2023-01-13T00:07:27.281Z,956.50
2023-01-13T00:08:27.237Z,956.49
2023-01-13T00:09:27.203Z,956.45
2023-01-13T00:10:27.191Z,956.41
2023-01-13T00:11:27.228Z,956.38
2023-01-13T00:12:27.169Z,956.35
2023-01-13T00:13:27.200Z,956.39
2023-01-13T00:14:27.155Z,956.34
2023-01-13T00:15:27.131Z,956.34
2023-01-13T00:16:27.132Z,956.26
2023-01-13T00:17:27.107Z,956.33
2023-01-13T00:18:27.112Z,956.32
2023-01-13T00:19:27.891Z,956.39
2023-01-13T00:20:27.075Z,956.41
2023-01-13T00:21:27.092Z,956.30
2023-01-13T00:22:27.136Z,956.28
2023-01-13T00:23:27.055Z,956.32
2023-01-13T00:24:27.030Z,956.36
2023-01-13T00:25:27.016Z,956.27
2023-01-13T00:26:27.025Z,956.30
2023-01-13T00:27:26.991Z,956.27
2023-01-13T00:28:27.041Z,956.25
2023-01-13T00:29:26.975Z,956.28
2023-01-13T00:30:26.969Z,956.24
2023-01-13T00:31:27.000Z,956.28
2023-01-13T00:32:26.983Z,956.27
2023-01-13T00:33:26.955Z,956.17
2023-01-13T00:34:26.991Z,956.19
2023-01-13T00:35:26.956Z,956.16
2023-01-13T00:36:26.949Z,956.12
2023-01-13T00:37:26.912Z,956.06
2023-01-13T00:38:26.880Z,956.09
2023-01-13T00:39:26.870Z,956.06
2023-01-13T00:40:26.891Z,956.13
2023-01-13T00:41:26.873Z,956.07
2023-01-13T00:42:26.836Z,956.10
2023-01-13T00:43:26.856Z,956.07
2023-01-13T00:44:26.812Z,956.13
2023-01-13T00:45:26.825Z,956.04
2023-01-13T00:46:26.847Z,956.02
2023-01-13T00:47:26.787Z,956.09
2023-01-13T00:48:26.805Z,956.11
2023-01-13T00:49:26.752Z,956.06
2023-01-13T00:50:26.790Z,956.10
2023-01-13T00:51:26.765Z,956.07
2023-01-13T00:52:26.752Z,956.11
2023-01-13T00:53:26.721Z,956.19
2023-01-13T00:54:26.725Z,956.10
2023-01-13T00:55:26.694Z,956.11
2023-01-13T00:56:39.731Z,956.09
2023-01-13T00:57:26.694Z,956.20
2023-01-13T00:58:26.680Z,956.19
2023-01-13T00:59:26.644Z,956.14
2023-01-13T01:00:26.669Z,956.17
2023-01-13T01:01:26.702Z,956.15
2023-01-13T01:02:26.755Z,956.06
2023-01-13T01:03:26.595Z,956.15
2023-01-13T01:04:26.581Z,956.09
2023-01-13T01:05:26.577Z,956.13
2023-01-13T01:06:26.562Z,956.09
2023-01-13T01:07:26.557Z,956.10
2023-01-13T01:08:26.550Z,956.09
2023-01-13T01:09:26.526Z,956.05
2023-01-13T01:10:26.524Z,956.10
2023-01-13T01:11:26.535Z,956.07
2023-01-13T01:12:26.566Z,956.07
2023-01-13T01:13:26.489Z,956.07
2023-01-13T01:14:26.492Z,956.08
2023-01-13T01:15:26.497Z,956.08
2023-01-13T01:16:26.569Z,956.11
2023-01-13T01:17:26.446Z,956.08
2023-01-13T01:18:26.431Z,956.08
2023-01-13T01:19:26.748Z,956.09
2023-01-13T01:20:26.431Z,956.08
2023-01-13T01:21:26.417Z,956.14
2023-01-13T01:22:26.433Z,956.04
2023-01-13T01:23:26.415Z,956.07
2023-01-13T01:24:26.371Z,956.03
2023-01-13T01:25:26.360Z,956.07
2023-01-13T01:26:26.337Z,956.07
2023-01-13T01:27:26.332Z,956.11
2023-01-13T01:28:26.383Z,955.98
2023-01-13T01:29:26.314Z,956.12
2023-01-13T01:30:26.335Z,955.96
2023-01-13T01:31:26.358Z,955.97
2023-01-13T01:32:26.299Z,955.95
2023-01-13T01:33:26.307Z,956.01
2023-01-13T01:34:26.264Z,955.93
2023-01-13T01:35:26.240Z,956.08
2023-01-13T01:36:26.229Z,956.03
2023-01-13T01:37:26.221Z,955.97
2023-01-13T01:38:26.233Z,955.98
2023-01-13T01:39:26.208Z,955.87
2023-01-13T01:40:26.197Z,955.98
2023-01-13T01:41:26.176Z,955.96
2023-01-13T01:42:26.157Z,955.97
2023-01-13T01:43:26.163Z,955.98
2023-01-13T01:44:26.139Z,955.99
2023-01-13T01:45:26.198Z,955.94
2023-01-13T01:46:26.331Z,955.88
2023-01-13T01:47:26.122Z,955.93
2023-01-13T01:48:26.104Z,955.93
2023-01-13T01:49:26.115Z,955.89
2023-01-13T01:50:26.089Z,955.85
2023-01-13T01:51:26.072Z,955.91
2023-01-13T01:52:26.056Z,955.92
2023-01-13T01:53:26.067Z,955.83
2023-01-13T01:54:26.029Z,955.82
2023-01-13T01:55:26.032Z,955.82
2023-01-13T01:56:26.000Z,955.80
2023-01-13T01:57:26.016Z,955.77
2023-01-13T01:58:26.071Z,955.78
2023-01-13T01:59:25.992Z,955.74
2023-01-13T02:00:25.997Z,955.77
2023-01-13T02:01:26.089Z,955.72
2023-01-13T02:02:25.974Z,955.64
2023-01-13T02:03:25.954Z,955.74
2023-01-13T02:04:25.915Z,955.70
2023-01-13T02:05:25.925Z,955.63
2023-01-13T02:06:25.916Z,955.64
2023-01-13T02:07:26.041Z,955.64
2023-01-13T02:08:25.945Z,955.61
2023-01-13T02:09:25.892Z,955.68
2023-01-13T02:10:25.847Z,955.62
2023-01-13T02:11:25.853Z,955.64
2023-01-13T02:12:25.840Z,955.57
2023-01-13T02:13:25.828Z,955.61
2023-01-13T02:14:25.972Z,955.64
2023-01-13T02:15:26.375Z,955.58
2023-01-13T02:16:25.823Z,955.64
2023-01-13T02:17:25.843Z,955.60
2023-01-13T02:18:25.782Z,955.58
2023-01-13T02:19:25.816Z,955.62
2023-01-13T02:20:25.746Z,955.59
2023-01-13T02:21:25.727Z,955.58
2023-01-13T02:22:25.732Z,955.57
2023-01-13T02:23:25.738Z,955.58
2023-01-13T02:24:25.706Z,955.55
2023-01-13T02:25:25.687Z,955.52
2023-01-13T02:26:25.680Z,955.47
2023-01-13T02:27:25.653Z,955.46
2023-01-13T02:28:25.715Z,955.43
2023-01-13T02:29:25.694Z,955.48
2023-01-13T02:30:25.636Z,955.50
2023-01-13T02:31:25.628Z,955.48
2023-01-13T02:32:25.639Z,955.52
2023-01-13T02:33:25.602Z,955.47
2023-01-13T02:34:25.617Z,955.55
2023-01-13T02:35:25.605Z,955.45
2023-01-13T02:36:25.569Z,955.39
2023-01-13T02:37:25.580Z,955.41
2023-01-13T02:38:25.552Z,955.34
2023-01-13T02:39:25.636Z,955.36
2023-01-13T02:40:25.552Z,955.39
2023-01-13T02:41:25.539Z,955.33
2023-01-13T02:42:25.501Z,955.36
2023-01-13T02:43:25.476Z,955.38
2023-01-13T02:44:25.536Z,955.39
2023-01-13T02:45:25.585Z,955.36
2023-01-13T02:46:25.489Z,955.34
2023-01-13T02:47:25.441Z,955.30
2023-01-13T02:48:25.420Z,955.30
2023-01-13T02:49:25.413Z,955.35
2023-01-13T02:50:25.410Z,955.36
2023-01-13T02:51:25.409Z,955.34
2023-01-13T02:52:25.379Z,955.31
2023-01-13T02:53:25.372Z,955.30
2023-01-13T02:54:25.421Z,955.28
2023-01-13T02:55:25.369Z,955.27
2023-01-13T02:56:25.354Z,955.29
2023-01-13T02:57:25.385Z,955.15
2023-01-13T02:58:25.326Z,955.24
2023-01-13T02:59:25.324Z,955.20
2023-01-13T03:00:25.264Z,955.21
2023-01-13T03:01:25.370Z,955.24
2023-01-13T03:02:25.227Z,955.18
2023-01-13T03:03:25.180Z,955.15
2023-01-13T03:04:25.172Z,955.14
2023-01-13T03:05:25.169Z,955.11
2023-01-13T03:06:25.126Z,955.09
2023-01-13T03:07:25.132Z,955.06
2023-01-13T03:08:25.115Z,955.09
2023-01-13T03:09:25.102Z,955.13
2023-01-13T03:10:25.097Z,955.11
2023-01-13T03:11:25.076Z,955.12
2023-01-13T03:12:25.109Z,955.09
2023-01-13T03:13:25.162Z,955.07
2023-01-13T03:14:25.048Z,955.08
2023-01-13T03:15:25.042Z,955.05
2023-01-13T03:16:25.019Z,955.04
2023-01-13T03:17:25.037Z,955.05
2023-01-13T03:18:24.984Z,955.07
2023-01-13T03:19:25.005Z,955.04
2023-01-13T03:20:24.971Z,954.98
2023-01-13T03:21:24.967Z,955.01
2023-01-13T03:22:24.939Z,954.96
2023-01-13T03:23:24.955Z,954.96
2023-01-13T03:24:24.964Z,954.95
2023-01-13T03:25:24.915Z,954.91
2023-01-13T03:26:24.926Z,954.90
2023-01-13T03:27:24.933Z,954.92
2023-01-13T03:28:24.897Z,954.89
2023-01-13T03:29:24.908Z,954.92
2023-01-13T03:30:24.972Z,954.88
2023-01-13T03:31:24.858Z,954.93
2023-01-13T03:32:24.850Z,954.92
2023-01-13T03:33:24.849Z,954.93
2023-01-13T03:34:24.835Z,954.92
2023-01-13T03:35:24.812Z,954.89
2023-01-13T03:36:24.879Z,954.92
2023-01-13T03:37:24.784Z,954.93
2023-01-13T03:38:24.797Z,954.90
2023-01-13T03:39:24.782Z,954.92
2023-01-13T03:40:24.775Z,954.90
2023-01-13T03:41:24.750Z,954.96
2023-01-13T03:42:24.783Z,954.96
2023-01-13T03:43:24.713Z,954.92
2023-01-13T03:44:24.726Z,954.89
2023-01-13T03:45:24.728Z,954.95
2023-01-13T03:46:24.775Z,954.95
2023-01-13T03:47:24.677Z,954.97
2023-01-13T03:48:25.287Z,954.95
2023-01-13T03:49:24.694Z,954.94
2023-01-13T03:50:24.677Z,954.98
2023-01-13T03:51:24.624Z,954.91
2023-01-13T03:52:24.627Z,954.85
2023-01-13T03:53:24.624Z,954.91
2023-01-13T03:54:24.599Z,954.85
2023-01-13T03:55:24.589Z,954.78
2023-01-13T03:56:24.576Z,954.83
2023-01-13T03:57:24.556Z,954.81
2023-01-13T03:58:24.600Z,954.79
2023-01-13T03:59:24.582Z,954.79
2023-01-13T04:00:24.538Z,954.80
2023-01-13T04:01:24.547Z,954.82
2023-01-13T04:02:24.499Z,954.82
2023-01-13T04:03:24.524Z,954.79
2023-01-13T04:04:24.484Z,954.79
2023-01-13T04:05:24.481Z,954.83
2023-01-13T04:06:24.457Z,954.85
2023-01-13T04:07:24.447Z,954.82
2023-01-13T04:08:24.440Z,954.78
2023-01-13T04:09:24.425Z,954.79
2023-01-13T04:10:24.450Z,954.83
2023-01-13T04:11:24.413Z,954.85
2023-01-13T04:12:24.399Z,954.77
2023-01-13T04:13:24.434Z,954.84
2023-01-13T04:14:24.376Z,954.79
2023-01-13T04:15:24.398Z,954.77
2023-01-13T04:16:24.380Z,954.72
2023-01-13T04:17:24.344Z,954.72
2023-01-13T04:18:24.327Z,954.71
2023-01-13T04:19:24.307Z,954.80
2023-01-13T04:20:24.309Z,954.78
2023-01-13T04:21:24.287Z,954.69
2023-01-13T04:22:24.298Z,954.72
2023-01-13T04:23:24.307Z,954.78
2023-01-13T04:24:24.280Z,954.75
2023-01-13T04:25:24.256Z,954.75
2023-01-13T04:26:24.808Z,954.77
2023-01-13T04:27:24.253Z,954.76
2023-01-13T04:28:24.230Z,954.80
2023-01-13T04:29:24.277Z,954.75
2023-01-13T04:30:24.202Z,954.80
2023-01-13T04:31:24.279Z,954.76
2023-01-13T04:32:24.195Z,954.71
2023-01-13T04:33:24.174Z,954.72
2023-01-13T04:34:25.175Z,954.65
2023-01-13T04:35:24.140Z,954.73
2023-01-13T04:36:24.138Z,954.65
2023-01-13T04:37:24.110Z,954.69
2023-01-13T04:38:24.115Z,954.65
2023-01-13T04:39:24.092Z,954.71
2023-01-13T04:40:24.304Z,954.70
2023-01-13T04:41:24.073Z,954.66
2023-01-13T04:42:24.159Z,954.65
2023-01-13T04:43:24.045Z,954.66
2023-01-13T04:44:24.763Z,954.60
2023-01-13T04:45:24.036Z,954.65
2023-01-13T04:46:24.651Z,954.62
2023-01-13T04:47:24.075Z,954.59
2023-01-13T04:48:24.018Z,954.67
2023-01-13T04:49:24.008Z,954.69
2023-01-13T04:50:23.981Z,954.59
2023-01-13T04:51:23.955Z,954.57
2023-01-13T04:52:23.944Z,954.64
2023-01-13T04:53:23.930Z,954.61
2023-01-13T04:54:23.950Z,954.64
2023-01-13T04:55:24.013Z,954.60
2023-01-13T04:56:23.936Z,954.49
2023-01-13T04:57:23.903Z,954.55
2023-01-13T04:58:23.889Z,954.57
2023-01-13T04:59:23.868Z,954.52
2023-01-13T05:00:24.024Z,954.50
2023-01-13T05:01:24.040Z,954.46
2023-01-13T05:02:23.899Z,954.63
2023-01-13T05:03:23.825Z,954.59
2023-01-13T05:04:23.875Z,954.53
2023-01-13T05:05:23.827Z,954.54
2023-01-13T05:06:23.816Z,954.55
2023-01-13T05:07:23.804Z,954.52
2023-01-13T05:08:23.780Z,954.53
2023-01-13T05:09:23.868Z,954.55
2023-01-13T05:10:24.237Z,954.51
2023-01-13T05:11:23.744Z,954.45
2023-01-13T05:12:23.721Z,954.50
2023-01-13T05:13:23.727Z,954.48
2023-01-13T05:14:23.716Z,954.49
2023-01-13T05:15:23.687Z,954.50
2023-01-13T05:16:23.913Z,954.53
2023-01-13T05:17:23.667Z,954.49
2023-01-13T05:18:23.676Z,954.54
2023-01-13T05:19:23.651Z,954.53
2023-01-13T05:20:23.659Z,954.59
2023-01-13T05:21:23.636Z,954.51
2023-01-13T05:22:23.632Z,954.50
2023-01-13T05:23:23.627Z,954.56
2023-01-13T05:24:23.602Z,954.59
2023-01-13T05:25:23.600Z,954.53
2023-01-13T05:26:23.607Z,954.54
2023-01-13T05:27:23.548Z,954.49
2023-01-13T05:28:23.604Z,954.47
2023-01-13T05:29:23.528Z,954.44
2023-01-13T05:30:23.548Z,954.47
2023-01-13T05:31:23.568Z,954.40
2023-01-13T05:32:23.513Z,954.46
2023-01-13T05:33:23.505Z,954.45
2023-01-13T05:34:23.483Z,954.42
2023-01-13T05:35:23.471Z,954.43
2023-01-13T05:36:23.611Z,954.41
2023-01-13T05:37:23.447Z,954.46
2023-01-13T05:38:23.483Z,954.44
2023-01-13T05:39:23.434Z,954.43
2023-01-13T05:40:23.420Z,954.42
2023-01-13T05:41:23.521Z,954.50
2023-01-13T05:42:23.394Z,954.40
2023-01-13T05:43:23.383Z,954.41
2023-01-13T05:44:23.367Z,954.46
2023-01-13T05:45:23.411Z,954.46
2023-01-13T05:46:23.384Z,954.38
2023-01-13T05:47:23.328Z,954.47
2023-01-13T05:48:23.346Z,954.46
2023-01-13T05:49:23.305Z,954.36
2023-01-13T05:50:23.301Z,954.47
2023-01-13T05:51:23.297Z,954.43
2023-01-13T05:52:23.283Z,954.35
2023-01-13T05:53:23.263Z,954.45
2023-01-13T05:54:23.299Z,954.44
2023-01-13T05:55:23.239Z,954.36
2023-01-13T05:56:23.287Z,954.44
2023-01-13T05:57:23.262Z,954.42
2023-01-13T05:58:23.210Z,954.42
2023-01-13T05:59:23.200Z,954.40
2023-01-13T06:00:23.191Z,954.38
2023-01-13T06:01:23.185Z,954.35
2023-01-13T06:02:23.162Z,954.33
2023-01-13T06:03:23.240Z,954.36
2023-01-13T06:04:23.227Z,954.33
2023-01-13T06:05:23.130Z,954.40
2023-01-13T06:06:23.192Z,954.34
2023-01-13T06:07:23.109Z,954.35
2023-01-13T06:08:23.103Z,954.41
2023-01-13T06:09:23.102Z,954.41
2023-01-13T06:10:23.084Z,954.39
2023-01-13T06:11:23.172Z,954.40
2023-01-13T06:12:23.100Z,954.45
2023-01-13T06:13:23.059Z,954.44
2023-01-13T06:14:23.056Z,954.36
2023-01-13T06:15:23.041Z,954.35
2023-01-13T06:16:23.174Z,954.34
2023-01-13T06:17:23.007Z,954.50
2023-01-13T06:18:23.030Z,954.44
2023-01-13T06:19:23.199Z,954.40
2023-01-13T06:20:22.961Z,954.40
2023-01-13T06:21:23.044Z,954.47
2023-01-13T06:22:23.833Z,954.50
2023-01-13T06:23:22.948Z,954.49
2023-01-13T06:24:22.950Z,954.41
2023-01-13T06:25:22.909Z,954.46
2023-01-13T06:26:22.904Z,954.46
2023-01-13T06:27:22.913Z,954.49
2023-01-13T06:28:22.906Z,954.45
2023-01-13T06:29:22.872Z,954.56
2023-01-13T06:30:22.864Z,954.54
2023-01-13T06:31:23.840Z,954.55
2023-01-13T06:32:22.852Z,954.51
2023-01-13T06:33:22.823Z,954.49
2023-01-13T06:34:22.878Z,954.47
2023-01-13T06:35:22.878Z,954.53
2023-01-13T06:36:22.786Z,954.54
2023-01-13T06:37:22.796Z,954.49
2023-01-13T06:38:22.776Z,954.55
2023-01-13T06:39:22.764Z,954.51
2023-01-13T06:40:22.742Z,954.53
2023-01-13T06:41:23.304Z,954.54
2023-01-13T06:42:22.745Z,954.57
2023-01-13T06:43:22.730Z,954.52
2023-01-13T06:44:22.731Z,954.47
2023-01-13T06:45:22.725Z,954.54
2023-01-13T06:46:22.725Z,954.55
2023-01-13T06:47:22.698Z,954.53
2023-01-13T06:48:22.658Z,954.60
2023-01-13T06:49:22.725Z,954.59
2023-01-13T06:50:22.675Z,954.49
2023-01-13T06:51:22.743Z,954.51
2023-01-13T06:52:22.637Z,954.49
2023-01-13T06:53:22.606Z,954.52
2023-01-13T06:54:22.757Z,954.52
2023-01-13T06:55:22.583Z,954.47
2023-01-13T06:56:22.628Z,954.50
2023-01-13T06:57:22.595Z,954.46
2023-01-13T06:58:22.544Z,954.51
2023-01-13T06:59:22.545Z,954.58
2023-01-13T07:00:22.606Z,954.53
2023-01-13T07:01:22.766Z,954.49
2023-01-13T07:02:22.758Z,954.51
2023-01-13T07:03:22.492Z,954.49
2023-01-13T07:04:22.488Z,954.54
2023-01-13T07:05:22.477Z,954.56
2023-01-13T07:06:22.473Z,954.52
2023-01-13T07:07:22.484Z,954.57
2023-01-13T07:08:22.443Z,954.58
2023-01-13T07:09:22.518Z,954.55
2023-01-13T07:10:22.627Z,954.57
2023-01-13T07:11:22.411Z,954.63
2023-01-13T07:12:22.457Z,954.60
2023-01-13T07:13:22.383Z,954.60
2023-01-13T07:14:22.394Z,954.58
2023-01-13T07:15:22.378Z,954.54
2023-01-13T07:16:22.372Z,954.54
2023-01-13T07:17:22.375Z,954.51
2023-01-13T07:18:22.364Z,954.55
2023-01-13T07:19:22.375Z,954.64
2023-01-13T07:20:22.311Z,954.57
2023-01-13T07:21:22.294Z,954.64
2023-01-13T07:22:22.286Z,954.77
2023-01-13T07:23:22.288Z,954.61
2023-01-13T07:24:22.265Z,954.64
2023-01-13T07:25:22.370Z,954.63
2023-01-13T07:26:22.238Z,954.59
2023-01-13T07:27:22.246Z,954.69
2023-01-13T07:28:22.347Z,954.64
2023-01-13T07:29:22.199Z,954.56
2023-01-13T07:30:22.192Z,954.62
2023-01-13T07:31:22.203Z,954.52
2023-01-13T07:32:22.331Z,954.55
2023-01-13T07:33:22.183Z,954.67
2023-01-13T07:34:22.157Z,954.65
2023-01-13T07:35:22.177Z,954.65
2023-01-13T07:36:22.117Z,954.68
2023-01-13T07:37:22.129Z,954.75
2023-01-13T07:38:22.163Z,954.74
2023-01-13T07:39:22.110Z,954.65
2023-01-13T07:40:22.089Z,954.67
2023-01-13T07:41:22.235Z,954.67
2023-01-13T07:42:22.054Z,954.67
2023-01-13T07:43:22.066Z,954.69
2023-01-13T07:44:22.033Z,954.70
2023-01-13T07:45:22.023Z,954.71
2023-01-13T07:46:22.029Z,954.71
2023-01-13T07:47:22.083Z,954.69
2023-01-13T07:48:22.028Z,954.70
2023-01-13T07:49:21.997Z,954.75
2023-01-13T07:50:21.956Z,954.75
2023-01-13T07:51:21.966Z,954.80
2023-01-13T07:52:21.958Z,954.81
2023-01-13T07:53:21.996Z,954.79
2023-01-13T07:54:35.173Z,954.81
2023-01-13T07:55:21.944Z,954.83
2023-01-13T07:56:21.901Z,954.80
2023-01-13T07:57:21.924Z,954.83
2023-01-13T07:58:23.459Z,954.85
2023-01-13T07:59:21.924Z,954.91
2023-01-13T08:00:21.894Z,954.78
2023-01-13T08:01:21.975Z,954.76
2023-01-13T08:02:22.079Z,954.89
2023-01-13T08:03:21.846Z,954.86
2023-01-13T08:04:21.810Z,954.81
2023-01-13T08:05:21.843Z,954.83
2023-01-13T08:06:21.791Z,954.89
2023-01-13T08:07:21.816Z,954.80
2023-01-13T08:08:21.800Z,954.79
2023-01-13T08:09:21.755Z,954.70
2023-01-13T08:10:21.737Z,954.88
2023-01-13T08:11:23.555Z,954.71
2023-01-13T08:12:21.798Z,954.80
2023-01-13T08:13:21.725Z,954.72
2023-01-13T08:14:21.811Z,954.74
2023-01-13T08:15:21.700Z,954.69
2023-01-13T08:16:21.688Z,954.63
2023-01-13T08:17:21.709Z,954.80
2023-01-13T08:18:21.692Z,954.73
2023-01-13T08:19:21.688Z,954.73
2023-01-13T08:20:21.691Z,954.72
2023-01-13T08:21:21.697Z,954.70
2023-01-13T08:22:21.608Z,954.71
2023-01-13T08:23:21.612Z,954.72
2023-01-13T08:24:21.615Z,954.64
2023-01-13T08:25:21.618Z,954.80
2023-01-13T08:26:21.580Z,954.78
2023-01-13T08:27:21.564Z,954.72
2023-01-13T08:28:21.718Z,954.78
2023-01-13T08:29:21.623Z,954.73
2023-01-13T08:30:21.527Z,954.74
2023-01-13T08:31:21.616Z,954.72
2023-01-13T08:32:24.969Z,954.71
2023-01-13T08:33:21.484Z,954.79
2023-01-13T08:34:21.508Z,954.83
2023-01-13T08:35:21.456Z,954.71
2023-01-13T08:36:21.455Z,954.76
2023-01-13T08:37:21.470Z,954.84
2023-01-13T08:38:21.428Z,954.74
2023-01-13T08:39:21.478Z,954.78
2023-01-13T08:40:21.424Z,954.90
2023-01-13T08:41:21.428Z,954.82
2023-01-13T08:42:21.420Z,954.84
2023-01-13T08:43:21.392Z,954.88
2023-01-13T08:44:21.457Z,954.86
2023-01-13T08:45:21.360Z,954.78
2023-01-13T08:46:21.455Z,954.83
2023-01-13T08:47:21.344Z,954.90
2023-01-13T08:48:21.337Z,954.92
2023-01-13T08:49:21.371Z,954.76
2023-01-13T08:50:21.396Z,954.92
2023-01-13T08:51:21.297Z,954.95
2023-01-13T08:52:21.275Z,954.88
2023-01-13T08:53:21.309Z,954.98
2023-01-13T08:54:21.289Z,954.92
2023-01-13T08:55:21.304Z,954.91
2023-01-13T08:56:21.225Z,954.99
2023-01-13T08:57:21.254Z,954.91
2023-01-13T08:58:21.793Z,954.94
2023-01-13T08:59:21.250Z,954.99
2023-01-13T09:00:21.195Z,954.87
2023-01-13T09:01:21.304Z,954.83
2023-01-13T09:02:21.389Z,954.88
2023-01-13T09:03:21.170Z,954.86
2023-01-13T09:04:21.215Z,954.85
2023-01-13T09:05:21.158Z,954.99
2023-01-13T09:06:21.158Z,954.93
2023-01-13T09:07:21.194Z,954.84
2023-01-13T09:08:21.099Z,954.88
2023-01-13T09:09:21.121Z,954.83
2023-01-13T09:10:21.097Z,954.90
2023-01-13T09:11:21.060Z,954.92
2023-01-13T09:12:22.852Z,955.02
2023-01-13T09:13:21.042Z,954.92
2023-01-13T09:14:21.048Z,955.00
2023-01-13T09:15:21.015Z,954.96
2023-01-13T09:16:21.037Z,954.96
2023-01-13T09:17:22.374Z,955.00
2023-01-13T09:18:24.807Z,954.94
2023-01-13T09:19:31.297Z,955.00
2023-01-13T09:20:20.966Z,954.91
2023-01-13T09:21:20.959Z,954.92
2023-01-13T09:22:20.972Z,955.01
2023-01-13T09:23:20.981Z,955.18
2023-01-13T09:24:21.115Z,954.98
2023-01-13T09:25:20.929Z,954.97
2023-01-13T09:26:20.981Z,954.97
2023-01-13T09:27:20.888Z,955.07
2023-01-13T09:28:20.881Z,955.05
2023-01-13T09:29:21.092Z,954.98
2023-01-13T09:30:20.892Z,955.01
2023-01-13T09:31:21.010Z,955.13
2023-01-13T09:32:20.862Z,955.03
2023-01-13T09:33:20.824Z,955.14
2023-01-13T09:34:20.802Z,955.07
2023-01-13T09:35:20.851Z,955.01
2023-01-13T09:36:20.787Z,954.97
2023-01-13T09:37:21.843Z,955.12
2023-01-13T09:38:20.761Z,955.03
2023-01-13T09:39:21.521Z,955.02
2023-01-13T09:40:29.845Z,955.06
2023-01-13T09:41:20.737Z,955.10
2023-01-13T09:42:20.709Z,955.04
2023-01-13T09:43:20.798Z,955.12
2023-01-13T09:44:21.358Z,955.12
2023-01-13T09:45:20.709Z,955.09
2023-01-13T09:46:21.963Z,955.00
2023-01-13T09:47:20.682Z,954.98
2023-01-13T09:48:21.362Z,955.03
2023-01-13T09:49:20.696Z,955.03
2023-01-13T09:50:20.882Z,954.95
2023-01-13T09:51:20.638Z,955.03
2023-01-13T09:52:20.609Z,954.89
2023-01-13T09:53:20.597Z,955.20
2023-01-13T09:54:20.629Z,955.01
2023-01-13T09:55:20.617Z,954.92
2023-01-13T09:56:20.627Z,954.98
2023-01-13T09:57:20.576Z,954.95
2023-01-13T09:58:20.585Z,954.88
2023-01-13T09:59:20.526Z,954.91
2023-01-13T10:00:20.607Z,954.95
2023-01-13T10:01:20.595Z,954.98
2023-01-13T10:02:20.510Z,954.83
2023-01-13T10:03:20.613Z,954.94
2023-01-13T10:04:20.545Z,954.99
2023-01-13T10:05:20.518Z,955.00
2023-01-13T10:06:20.568Z,954.92
2023-01-13T10:07:21.462Z,955.17
2023-01-13T10:08:20.469Z,954.94
2023-01-13T10:09:20.418Z,954.92
2023-01-13T10:10:20.508Z,954.89
2023-01-13T10:11:20.660Z,954.86
2023-01-13T10:12:20.448Z,954.95
2023-01-13T10:13:20.447Z,954.73
2023-01-13T10:14:20.479Z,954.97
2023-01-13T10:15:20.387Z,954.83
2023-01-13T10:16:20.389Z,954.76
2023-01-13T10:17:20.346Z,954.68
2023-01-13T10:18:20.347Z,954.71
2023-01-13T10:19:20.473Z,954.78
2023-01-13T10:20:20.329Z,954.74
2023-01-13T10:21:20.313Z,954.88
2023-01-13T10:22:20.318Z,954.80
2023-01-13T10:23:20.265Z,954.74
2023-01-13T10:24:20.256Z,954.63
2023-01-13T10:25:20.325Z,954.70
2023-01-13T10:26:20.632Z,954.69
2023-01-13T10:27:20.211Z,954.58
2023-01-13T10:28:20.972Z,954.61
2023-01-13T10:29:20.196Z,954.59
2023-01-13T10:30:20.305Z,954.69
2023-01-13T10:31:20.338Z,954.60
2023-01-13T10:32:20.174Z,954.71
2023-01-13T10:33:20.167Z,954.65
2023-01-13T10:34:20.227Z,954.69
2023-01-13T10:35:20.220Z,954.64
2023-01-13T10:36:20.156Z,954.66
2023-01-13T10:37:20.145Z,954.76
2023-01-13T10:38:20.140Z,954.80
2023-01-13T10:39:22.120Z,954.78
2023-01-13T10:40:20.095Z,954.63
2023-01-13T10:41:20.055Z,954.48
2023-01-13T10:42:20.053Z,954.50
2023-01-13T10:43:20.047Z,954.52
2023-01-13T10:44:20.075Z,954.53
2023-01-13T10:45:20.023Z,954.56
2023-01-13T10:46:20.072Z,954.73
2023-01-13T10:47:20.015Z,954.50
2023-01-13T10:48:19.991Z,954.42
2023-01-13T10:49:19.965Z,954.53
2023-01-13T10:50:19.988Z,954.47
2023-01-13T10:51:19.937Z,954.53
2023-01-13T10:52:19.999Z,954.46
2023-01-13T10:53:19.932Z,954.42
2023-01-13T10:54:19.960Z,954.31
2023-01-13T10:55:20.336Z,954.40
2023-01-13T10:56:19.944Z,954.41
2023-01-13T10:57:19.979Z,954.42
2023-01-13T10:58:19.883Z,954.47
2023-01-13T10:59:19.895Z,954.45
2023-01-13T11:00:19.867Z,954.49
2023-01-13T11:01:19.997Z,954.42
2023-01-13T11:02:25.943Z,954.44
2023-01-13T11:03:19.813Z,954.48
2023-01-13T11:04:19.801Z,954.42
2023-01-13T11:05:19.850Z,954.53
2023-01-13T11:06:19.797Z,954.31
2023-01-13T11:07:19.809Z,954.38
2023-01-13T11:08:20.419Z,954.37
2023-01-13T11:09:19.796Z,954.33
2023-01-13T11:10:19.812Z,954.40
2023-01-13T11:11:20.412Z,954.33
2023-01-13T11:12:19.813Z,954.36
2023-01-13T11:13:19.734Z,954.48
2023-01-13T11:14:19.751Z,954.44
2023-01-13T11:15:20.248Z,954.43
2023-01-13T11:16:19.856Z,954.49
2023-01-13T11:17:19.880Z,954.58
2023-01-13T11:18:19.642Z,954.42
2023-01-13T11:19:19.623Z,954.57
2023-01-13T11:20:19.620Z,954.55
2023-01-13T11:21:19.649Z,954.50
2023-01-13T11:22:19.611Z,954.51
2023-01-13T11:23:19.597Z,954.63
2023-01-13T11:24:19.588Z,954.56
2023-01-13T11:25:19.624Z,954.56
2023-01-13T11:26:19.650Z,954.57
2023-01-13T11:27:19.536Z,954.63
2023-01-13T11:28:21.340Z,954.46
2023-01-13T11:29:19.514Z,954.60
2023-01-13T11:30:19.604Z,954.51
2023-01-13T11:31:19.578Z,954.45
2023-01-13T11:32:19.588Z,954.66
2023-01-13T11:33:19.495Z,954.51
2023-01-13T11:34:19.567Z,954.37
2023-01-13T11:35:19.501Z,954.36
2023-01-13T11:36:20.691Z,954.38
2023-01-13T11:37:19.452Z,954.34
2023-01-13T11:38:19.422Z,954.30
2023-01-13T11:39:19.400Z,954.31
2023-01-13T11:40:19.406Z,954.38
2023-01-13T11:41:19.428Z,954.33
2023-01-13T11:42:19.392Z,954.37
2023-01-13T11:43:20.401Z,954.34
2023-01-13T11:44:19.541Z,954.45
2023-01-13T11:45:19.340Z,954.42
2023-01-13T11:46:19.434Z,954.31
2023-01-13T11:47:19.441Z,954.36
2023-01-13T11:48:19.395Z,954.40
2023-01-13T11:49:21.499Z,954.47
2023-01-13T11:50:19.383Z,954.39
2023-01-13T11:51:19.410Z,954.43
2023-01-13T11:52:19.276Z,954.35
2023-01-13T11:53:19.242Z,954.45
2023-01-13T11:54:19.256Z,954.38
2023-01-13T11:55:20.591Z,954.40
2023-01-13T11:56:19.251Z,954.32
2023-01-13T11:57:19.286Z,954.46
2023-01-13T11:58:19.241Z,954.43
2023-01-13T11:59:19.221Z,954.43
2023-01-13T12:00:19.235Z,954.48
2023-01-13T12:01:21.544Z,954.37
2023-01-13T12:02:19.249Z,954.38
2023-01-13T12:03:19.318Z,954.51
2023-01-13T12:04:19.149Z,954.55
2023-01-13T12:05:19.161Z,954.44
2023-01-13T12:06:19.119Z,954.43
2023-01-13T12:07:21.413Z,954.47
2023-01-13T12:08:19.155Z,954.48
2023-01-13T12:09:19.091Z,954.41
2023-01-13T12:10:19.068Z,954.61
2023-01-13T12:11:19.063Z,954.41
2023-01-13T12:12:19.148Z,954.46
2023-01-13T12:13:19.049Z,954.55
2023-01-13T12:14:19.058Z,954.47
2023-01-13T12:15:19.022Z,954.55
2023-01-13T12:16:19.028Z,954.57
2023-01-13T12:17:18.998Z,954.53
2023-01-13T12:18:18.991Z,954.55
2023-01-13T12:19:18.957Z,954.61
2023-01-13T12:20:18.982Z,954.61
2023-01-13T12:21:18.944Z,954.56
2023-01-13T12:22:18.961Z,954.53
2023-01-13T12:23:18.964Z,954.50
2023-01-13T12:24:18.940Z,954.71
2023-01-13T12:25:19.046Z,954.54
2023-01-13T12:26:18.995Z,954.64
2023-01-13T12:27:19.889Z,954.64
2023-01-13T12:28:19.012Z,954.66